Dades meteomassalio
Diari Summary for Noviembre 16, 2017 Units:  English    Metric   Both
« Previous Day
Next Day »
Diari Semanal Mensual Anual Personalitzat
  Maxima: Minima: Mijana:
Temperatura: TemperatureC °F -4.4 °F 3.1 °F
Rosada: DewpointC °F -9.1 °F -5.4 °F
Humitat: Humidity % 34 % 56 %
Velocitat del vent: WindSpeedKMH mph 0.0 mph 0.7 mph
Racha vent: WindSpeedGustKMH mph - -
Vent:- - East
Pressio: PressurehPa in 1023.2 in -
Pluja: 0.0 in    
Historical Graphs
 
 
Tabular Data for Noviembre 16, 2017
Time Temperature Dew Point Pressure Wind Wind Speed Wind Gust Humidity Rainfall Rate (Hourly) solar Conditions
TemperatureC °F DewpointC °F PressurehPa in Calm     Humidity % HourlyPrecipMM in SolarRadiationWatts/m^2 W/m2 Conditions
00:00 -0.6 °F -6.9 °F 1023.2 in Calm     62 % 0.0 in 0.0 W/m2 CLR
00:05 -0.6 °F -7.2 °F 1023.2 in Calm     61 % 0.0 in 0.0 W/m2 CLR
00:06 -0.6 °F -7.2 °F 1023.2 in Calm     61 % 0.0 in 0.0 W/m2 CLR
00:11 -0.6 °F -7.4 °F 1023.2 in Calm     60 % 0.0 in 0.0 W/m2 CLR
00:16 -0.6 °F -7.2 °F 1023.2 in Calm     61 % 0.0 in 0.0 W/m2 CLR
00:21 -0.6 °F -6.9 °F 1023.2 in Calm     62 % 0.0 in 0.0 W/m2 CLR
00:26 -0.6 °F -6.7 °F 1023.2 in Calm     63 % 0.0 in 0.0 W/m2 CLR
00:31 -0.6 °F -6.7 °F 1023.2 in Calm     63 % 0.0 in 0.0 W/m2 CLR
00:36 -0.6 °F -6.6 °F 1023.2 in Calm     64 % 0.0 in 0.0 W/m2 CLR
00:41 -1.1 °F -7.1 °F 1023.2 in Calm     64 % 0.0 in 0.0 W/m2 CLR
00:46 -1.1 °F -7.3 °F 1023.2 in Calm     63 % 0.0 in 0.0 W/m2 CLR
00:51 -1.1 °F -7.1 °F 1023.2 in Calm     64 % 0.0 in 0.0 W/m2 CLR
00:56 -0.6 °F -6.6 °F 1023.2 in Calm     64 % 0.0 in 0.0 W/m2 CLR
01:01 -0.6 °F -6.6 °F 1023.2 in Calm     64 % 0.0 in 0.0 W/m2 CLR
01:06 -0.6 °F -6.6 °F 1023.2 in Calm     64 % 0.0 in 0.0 W/m2 CLR
01:11 -0.6 °F -6.6 °F 1023.2 in Calm     64 % 0.0 in 0.0 W/m2 CLR
01:16 -0.6 °F -6.6 °F 1023.2 in Calm     64 % 0.0 in 0.0 W/m2 CLR
01:21 -1.1 °F -7.1 °F 1023.2 in Calm     64 % 0.0 in 0.0 W/m2 CLR
01:26 -0.6 °F -6.6 °F 1023.2 in Calm     64 % 0.0 in 0.0 W/m2 CLR
01:31 -0.6 °F -6.6 °F 1023.2 in Calm     64 % 0.0 in 0.0 W/m2 CLR
01:36 -1.1 °F -6.8 °F 1023.2 in Calm     65 % 0.0 in 0.0 W/m2 CLR
01:41 -0.6 °F -6.3 °F 1023.2 in Calm     65 % 0.0 in 0.0 W/m2 CLR
01:46 -0.6 °F -6.6 °F 1023.2 in Calm     64 % 0.0 in 0.0 W/m2 CLR
01:56 -0.6 °F -6.6 °F 1023.6 in Calm     64 % 0.0 in 0.0 W/m2 CLR
02:01 -0.6 °F -6.6 °F 1023.6 in Calm     64 % 0.0 in 0.0 W/m2 CLR
02:06 -1.1 °F -7.1 °F 1023.6 in Calm     64 % 0.0 in 0.0 W/m2 CLR
02:11 -1.1 °F -7.1 °F 1023.6 in Calm     64 % 0.0 in 0.0 W/m2 CLR
02:16 -1.1 °F -7.1 °F 1023.6 in Calm     64 % 0.0 in 0.0 W/m2 CLR
02:21 -1.1 °F -6.8 °F 1023.6 in Calm     65 % 0.0 in 0.0 W/m2 CLR
02:31 -1.1 °F -6.7 °F 1023.6 in Calm     66 % 0.0 in 0.0 W/m2 CLR
02:36 -1.1 °F -6.7 °F 1023.6 in Calm     66 % 0.0 in 0.0 W/m2 CLR
02:37 -1.7 °F -7.0 °F 1023.6 in Calm     67 % 0.0 in 0.0 W/m2 CLR
02:42 -1.7 °F -7.0 °F 1023.6 in Calm     67 % 0.0 in 0.0 W/m2 CLR
02:47 -1.7 °F -7.0 °F 1023.6 in Calm     67 % 0.0 in 0.0 W/m2 CLR
02:52 -2.2 °F -7.5 °F 1023.6 in Calm     67 % 0.0 in 0.0 W/m2 CLR
02:57 -2.2 °F -7.5 °F 1023.6 in Calm     67 % 0.0 in 0.0 W/m2 CLR
03:02 -2.2 °F -7.5 °F 1023.6 in Calm     67 % 0.0 in 0.0 W/m2 CLR
03:07 -2.2 °F -7.5 °F 1023.6 in Calm     67 % 0.0 in 0.0 W/m2 CLR
03:12 -2.2 °F -7.5 °F 1023.6 in Calm     67 % 0.0 in 0.0 W/m2 CLR
03:17 -2.2 °F -7.5 °F 1023.6 in Calm     67 % 0.0 in 0.0 W/m2 CLR
03:22 -2.2 °F -7.7 °F 1023.6 in Calm     66 % 0.0 in 0.0 W/m2 CLR
03:27 -2.2 °F -7.7 °F 1023.6 in Calm     66 % 0.0 in 0.0 W/m2 CLR
03:32 -2.8 °F -8.1 °F 1023.6 in Calm     67 % 0.0 in 0.0 W/m2 CLR
03:37 -2.8 °F -7.9 °F 1023.6 in Calm     68 % 0.0 in 0.0 W/m2 CLR
03:42 -2.8 °F -7.9 °F 1023.6 in Calm     68 % 0.0 in 0.0 W/m2 CLR
03:47 -2.8 °F -7.9 °F 1023.6 in Calm     68 % 0.0 in 0.0 W/m2 CLR
03:52 -2.8 °F -8.1 °F 1023.6 in Calm     67 % 0.0 in 0.0 W/m2 CLR
03:57 -3.3 °F -8.6 °F 1023.6 in Calm     67 % 0.0 in 0.0 W/m2 CLR
04:02 -2.8 °F -8.1 °F 1023.6 in Calm     67 % 0.0 in 0.0 W/m2 CLR
04:07 -2.8 °F -8.1 °F 1023.6 in Calm     67 % 0.0 in 0.0 W/m2 CLR
04:14 -2.8 °F -8.1 °F 1023.2 in Calm     67 % 0.0 in 0.0 W/m2 CLR
04:19 -2.8 °F -7.9 °F 1023.2 in Calm     68 % 0.0 in 0.0 W/m2 CLR
04:21 -3.3 °F -8.4 °F 1023.2 in Calm     68 % 0.0 in 0.0 W/m2 CLR
04:22 -3.3 °F -8.4 °F 1023.2 in Calm     68 % 0.0 in 0.0 W/m2 CLR
04:27 -3.3 °F -8.4 °F 1023.2 in Calm     68 % 0.0 in 0.0 W/m2 CLR
04:32 -3.3 °F -8.4 °F 1023.2 in Calm     68 % 0.0 in 0.0 W/m2 CLR
04:37 -2.8 °F -8.1 °F 1023.2 in Calm     67 % 0.0 in 0.0 W/m2 CLR
04:42 -3.3 °F -8.6 °F 1023.6 in Calm     67 % 0.0 in 0.0 W/m2 CLR
04:47 -3.3 °F -8.4 °F 1023.6 in Calm     68 % 0.0 in 0.0 W/m2 CLR
04:52 -3.3 °F -8.4 °F 1023.2 in Calm     68 % 0.0 in 0.0 W/m2 CLR
04:57 -3.3 °F -8.4 °F 1023.2 in Calm     68 % 0.0 in 0.0 W/m2 CLR
05:02 -3.3 °F -8.2 °F 1023.2 in Calm     69 % 0.0 in 0.0 W/m2 CLR
05:07 -3.3 °F -8.2 °F 1023.6 in Calm     69 % 0.0 in 0.0 W/m2 CLR
05:12 -3.9 °F -8.7 °F 1023.2 in Calm     69 % 0.0 in 0.0 W/m2 CLR
05:17 -3.9 °F -8.7 °F 1023.6 in Calm     69 % 0.0 in 0.0 W/m2 CLR
05:22 -3.9 °F -8.7 °F 1023.6 in Calm     69 % 0.0 in 0.0 W/m2 CLR
05:27 -3.9 °F -8.7 °F 1023.6 in Calm     69 % 0.0 in 0.0 W/m2 CLR
05:32 -3.9 °F -8.7 °F 1023.6 in Calm     69 % 0.0 in 0.0 W/m2 CLR
05:37 -3.9 °F -8.7 °F 1023.6 in Calm     69 % 0.0 in 0.0 W/m2 CLR
05:42 -3.9 °F -8.7 °F 1023.6 in Calm     69 % 0.0 in 0.0 W/m2 CLR
05:47 -3.9 °F -8.7 °F 1023.6 in Calm     69 % 0.0 in 0.0 W/m2 CLR
05:52 -3.9 °F -8.7 °F 1023.6 in Calm     69 % 0.0 in 0.0 W/m2 CLR
05:57 -3.3 °F -8.0 °F 1023.6 in Calm     70 % 0.0 in 0.0 W/m2 CLR
06:02 -3.3 °F -8.0 °F 1023.6 in Calm     70 % 0.0 in 0.0 W/m2 CLR
06:07 -3.3 °F -8.0 °F 1023.6 in Calm     70 % 0.0 in 0.0 W/m2 CLR
06:12 -3.9 °F -8.4 °F 1023.6 in Calm     71 % 0.0 in 0.0 W/m2 CLR
06:17 -3.9 °F -8.4 °F 1023.6 in Calm     71 % 0.0 in 0.0 W/m2 CLR
06:22 -3.9 °F -8.4 °F 1023.6 in Calm     71 % 0.0 in 0.0 W/m2 CLR
06:27 -3.9 °F -8.4 °F 1023.6 in Calm     71 % 0.0 in 0.0 W/m2 CLR
06:32 -3.9 °F -8.4 °F 1023.6 in Calm     71 % 0.0 in 0.0 W/m2 CLR
06:37 -4.4 °F -8.9 °F 1023.6 in Calm     71 % 0.0 in 0.0 W/m2 CLR
06:43 -4.4 °F -8.7 °F 1023.9 in Calm     72 % 0.0 in 0.0 W/m2 CLR
06:48 -4.4 °F -8.7 °F 1023.9 in Calm     72 % 0.0 in 0.0 W/m2 CLR
06:49 -4.4 °F -8.7 °F 1023.9 in Calm     72 % 0.0 in 0.0 W/m2 CLR
06:54 -3.9 °F -8.2 °F 1023.9 in Calm     72 % 0.0 in 0.0 W/m2 CLR
06:59 -3.9 °F -8.2 °F 1023.9 in Calm     72 % 0.0 in 0.0 W/m2 CLR
07:04 -4.4 °F -8.7 °F 1023.9 in Calm     72 % 0.0 in 0.0 W/m2 CLR
07:09 -4.4 °F -8.6 °F 1023.9 in Calm     73 % 0.0 in 0.0 W/m2 CLR
07:19 -4.4 °F -8.6 °F 1024.3 in Calm     73 % 0.0 in 0.0 W/m2 CLR
07:24 -4.4 °F -8.4 °F 1024.3 in Calm     74 % 0.0 in 0.0 W/m2 CLR
07:29 -4.4 °F -8.6 °F 1024.3 in Calm     73 % 0.0 in 0.0 W/m2 CLR
07:34 -4.4 °F -8.4 °F 1024.3 in Calm     74 % 0.0 in 0.0 W/m2 CLR
07:39 -3.9 °F -8.0 °F 1024.3 in Calm     73 % 0.0 in 0.0 W/m2 OVC
07:44 -3.9 °F -8.0 °F 1024.3 in Calm     73 % 0.0 in 0.0 W/m2 OVC
07:49 -3.9 °F -8.2 °F 1024.3 in Calm     72 % 0.0 in 5.0 W/m2 OVC
07:54 -4.4 °F -8.7 °F 1024.3 in Calm     72 % 0.0 in 7.0 W/m2 OVC
07:59 -4.4 °F -8.6 °F 1024.3 in Calm     73 % 0.0 in 11.0 W/m2 OVC
08:04 -4.4 °F -8.6 °F 1024.6 in Calm     73 % 0.0 in 12.0 W/m2 OVC
08:09 -4.4 °F -8.6 °F 1024.6 in Calm     73 % 0.0 in 14.0 W/m2 OVC
08:14 -4.4 °F -8.6 °F 1024.6 in Calm     73 % 0.0 in 16.0 W/m2 OVC
08:19 -3.9 °F -8.0 °F 1024.6 in Calm     73 % 0.0 in 25.0 W/m2 OVC
08:24 -3.9 °F -8.2 °F 1024.6 in Calm     72 % 0.0 in 37.0 W/m2 OVC
08:29 -3.9 °F -8.2 °F 1024.6 in Calm     72 % 0.0 in 46.0 W/m2 OVC
08:34 -3.9 °F -8.4 °F 1024.6 in Calm     71 % 0.0 in 49.0 W/m2 OVC
08:39 -3.9 °F -8.4 °F 1024.6 in Calm     71 % 0.0 in 60.0 W/m2 OVC
08:44 -3.9 °F -8.6 °F 1024.9 in Calm     70 % 0.0 in 79.0 W/m2 OVC
08:49 -3.9 °F -8.9 °F 1024.9 in Calm     68 % 0.0 in 93.0 W/m2 BKN
08:54 -3.9 °F -9.1 °F 1024.9 in Calm     67 % 0.0 in 105.0 W/m2 SCT
08:59 -3.9 °F -9.1 °F 1024.9 in Calm     67 % 0.0 in 116.0 W/m2 CLR
09:04 -3.3 °F -8.8 °F 1024.9 in Calm     66 % 0.0 in 132.0 W/m2 CLR
09:09 -2.8 °F -8.4 °F 1024.9 in Calm     65 % 0.0 in 151.0 W/m2 CLR
09:14 -2.8 °F -8.4 °F 1024.9 in Calm     65 % 0.0 in 105.0 W/m2 CLR
09:19 -2.2 °F -8.1 °F 1024.9 in Calm     64 % 0.0 in 183.0 W/m2 CLR
09:24 -2.2 °F -8.3 °F 1025.3 in Calm     63 % 0.0 in 172.0 W/m2 CLR
09:29 -1.7 °F -8.0 °F 1024.9 in Calm     62 % 0.0 in 206.0 W/m2 CLR
09:34 -1.7 °F -8.2 °F 1024.9 in Calm     61 % 0.0 in 229.0 W/m2 CLR
09:39 -1.1 °F -8.1 °F 1025.3 in Calm     59 % 0.0 in 243.0 W/m2 CLR
09:44 -0.6 °F -7.8 °F 1025.3 in Calm     58 % 0.0 in 257.0 W/m2 CLR
09:49 0.0 °F -7.5 °F 1025.3 in Calm     57 % 0.0 in 269.0 W/m2 CLR
09:54 0.0 °F -7.7 °F 1025.3 in Calm     56 % 0.0 in 279.0 W/m2 CLR
09:59 1.1 °F -6.7 °F 1025.3 in Calm     56 % 0.0 in 290.0 W/m2 CLR
10:04 1.7 °F -6.9 °F 1025.3 in Calm     53 % 0.0 in 302.0 W/m2 CLR
10:09 2.8 °F -6.1 °F 1025.3 in Calm     52 % 0.0 in 315.0 W/m2 CLR
10:14 3.3 °F -5.6 °F 1025.3 in Calm     52 % 0.0 in 325.0 W/m2 CLR
10:19 3.9 °F -5.3 °F 1025.3 in Calm     51 % 0.0 in 336.0 W/m2 CLR
10:24 3.9 °F -5.3 °F 1025.3 in Calm     51 % 0.0 in 346.0 W/m2 CLR
10:29 4.4 °F -4.8 °F 1025.6 in Calm     51 % 0.0 in 357.0 W/m2 CLR
10:34 5.6 °F -4.1 °F 1025.6 in Calm     50 % 0.0 in 369.0 W/m2 CLR
10:39 6.1 °F -4.1 °F 1025.6 in Calm     48 % 0.0 in 380.0 W/m2 CLR
10:44 6.1 °F -4.4 °F 1025.6 in Calm     47 % 0.0 in 387.0 W/m2 CLR
10:49 7.2 °F -3.3 °F 1026.0 in Calm     47 % 0.0 in 396.0 W/m2 CLR
10:54 7.2 °F -3.3 °F 1025.6 in Calm     47 % 0.0 in 404.0 W/m2 CLR
10:59 8.3 °F -2.6 °F 1025.6 in Calm     46 % 0.0 in 413.0 W/m2 CLR
11:09 8.9 °F -3.1 °F 1026.0 in ESE 3.7 mph 3.7 mph 43 % 0.0 in 429.0 W/m2 CLR
11:14 8.9 °F -2.7 °F 1026.0 in ESE 1.6 mph 1.6 mph 44 % 0.0 in 436.0 W/m2 CLR
11:20 8.9 °F -2.7 °F 1026.0 in East 1.9 mph 1.9 mph 44 % 0.0 in 443.0 W/m2 CLR
11:25 9.4 °F -2.5 °F 1026.0 in East 3.7 mph 3.7 mph 43 % 0.0 in 454.0 W/m2 CLR
11:30 9.4 °F -2.5 °F 1026.0 in East 3.7 mph 3.7 mph 43 % 0.0 in 455.0 W/m2 CLR
11:35 10.0 °F -2.0 °F 1026.0 in East 3.7 mph 3.7 mph 43 % 0.0 in 457.0 W/m2 CLR
11:40 10.0 °F -2.0 °F 1026.0 in ENE 3.7 mph 3.7 mph 43 % 0.0 in 459.0 W/m2 CLR
11:45 10.0 °F -2.0 °F 1025.6 in Calm     43 % 0.0 in 471.0 W/m2 CLR
11:50 10.0 °F -2.0 °F 1025.6 in East 7.4 mph 7.4 mph 43 % 0.0 in 476.0 W/m2 CLR
11:55 10.0 °F -2.3 °F 1025.6 in ENE 7.4 mph 7.4 mph 42 % 0.0 in 482.0 W/m2 CLR
12:00 10.6 °F -1.8 °F 1025.6 in East 5.6 mph   42 % 0.0 in 485.0 W/m2 CLR
12:05 10.6 °F -1.8 °F 1025.6 in East 1.9 mph   42 % 0.0 in 487.0 W/m2 CLR
12:10 10.6 °F -1.8 °F 1025.6 in East 1.9 mph 1.9 mph 42 % 0.0 in 492.0 W/m2 CLR
12:15 11.1 °F -1.7 °F 1025.3 in East 9.3 mph 9.3 mph 41 % 0.0 in 494.0 W/m2 CLR
12:20 11.1 °F -1.3 °F 1025.3 in ENE 1.9 mph 1.9 mph 42 % 0.0 in 497.0 W/m2 CLR
12:25 11.7 °F -1.5 °F 1025.3 in ENE 3.7 mph   40 % 0.0 in 494.0 W/m2 CLR
12:30 11.7 °F -1.5 °F 1025.3 in East 1.9 mph   40 % 0.0 in 497.0 W/m2 CLR
12:35 11.7 °F -1.5 °F 1024.9 in ENE 3.2 mph 3.2 mph 40 % 0.0 in 501.0 W/m2 CLR
12:40 12.2 °F -1.0 °F 1024.9 in ENE 1.6 mph 1.6 mph 40 % 0.0 in 503.0 W/m2 CLR
12:45 12.8 °F -0.8 °F 1024.6 in East 3.2 mph 3.2 mph 39 % 0.0 in 503.0 W/m2 CLR
12:50 12.8 °F -0.8 °F 1024.6 in East 3.2 mph 3.2 mph 39 % 0.0 in 504.0 W/m2 CLR
12:55 12.8 °F -1.2 °F 1024.6 in East 3.7 mph 3.7 mph 38 % 0.0 in 503.0 W/m2 CLR
13:00 12.8 °F -1.2 °F 1024.6 in Calm     38 % 0.0 in 501.0 W/m2 CLR
13:05 12.8 °F -1.2 °F 1024.6 in East 3.7 mph 3.7 mph 38 % 0.0 in 503.0 W/m2 CLR
13:10 13.3 °F -0.7 °F 1024.6 in ENE 1.9 mph 1.9 mph 38 % 0.0 in 501.0 W/m2 CLR
13:15 13.3 °F -1.1 °F 1024.6 in ENE 16.1 mph 16.1 mph 37 % 0.0 in 499.0 W/m2 CLR
13:20 13.3 °F -1.1 °F 1024.6 in East 1.9 mph 1.9 mph 37 % 0.0 in 497.0 W/m2 CLR
13:25 13.9 °F -0.6 °F 1024.3 in East 14.8 mph   37 % 0.0 in 496.0 W/m2 CLR
13:30 13.3 °F -1.1 °F 1024.3 in ESE 3.7 mph   37 % 0.0 in 494.0 W/m2 CLR
13:35 13.3 °F -1.1 °F 1024.3 in ESE 1.9 mph   37 % 0.0 in 483.0 W/m2 CLR
13:40 13.9 °F -0.6 °F 1024.3 in Calm     37 % 0.0 in 492.0 W/m2 CLR
13:45 13.3 °F -1.1 °F 1024.3 in ENE 1.9 mph   37 % 0.0 in 492.0 W/m2 CLR
13:50 13.9 °F -0.9 °F 1024.3 in ESE 1.9 mph 1.9 mph 36 % 0.0 in 494.0 W/m2 CLR
13:55 13.9 °F -0.9 °F 1024.3 in ESE 3.7 mph 3.7 mph 36 % 0.0 in 482.0 W/m2 CLR
14:00 14.4 °F -0.4 °F 1023.9 in SE 1.6 mph 1.6 mph 36 % 0.0 in 424.0 W/m2 CLR
14:05 13.9 °F -0.9 °F 1023.9 in ESE 1.9 mph 1.9 mph 36 % 0.0 in 464.0 W/m2 CLR
14:10 13.9 °F -0.9 °F 1023.9 in East 1.9 mph 1.9 mph 36 % 0.0 in 425.0 W/m2 CLR
14:15 13.9 °F -0.9 °F 1023.9 in Calm     36 % 0.0 in 323.0 W/m2 CLR
14:20 13.9 °F -1.3 °F 1023.9 in Calm     35 % 0.0 in 304.0 W/m2 CLR
14:25 14.4 °F -0.4 °F 1023.6 in NNE 3.7 mph 3.7 mph 36 % 0.0 in 264.0 W/m2 CLR
14:30 13.9 °F -0.9 °F 1023.6 in NNE 1.9 mph 1.9 mph 36 % 0.0 in 272.0 W/m2 CLR
14:35 13.9 °F -0.9 °F 1023.9 in NNE 5.6 mph 5.6 mph 36 % 0.0 in 353.0 W/m2 CLR
14:40 14.4 °F -0.4 °F 1023.9 in NNE 5.6 mph 5.6 mph 36 % 0.0 in 269.0 W/m2 CLR
14:45 14.4 °F -0.4 °F 1023.6 in NNE 5.6 mph 5.6 mph 36 % 0.0 in 408.0 W/m2 CLR
14:50 14.4 °F -0.4 °F 1023.6 in NNE 11.3 mph 11.3 mph 36 % 0.0 in 396.0 W/m2 CLR
14:55 14.4 °F -0.8 °F 1023.6 in North 13.0 mph 13.0 mph 35 % 0.0 in 390.0 W/m2 CLR
15:00 15.0 °F -0.3 °F 1023.6 in NNE 5.6 mph 5.6 mph 35 % 0.0 in 338.0 W/m2 CLR
15:05 15.0 °F -0.3 °F 1023.6 in NNW 5.6 mph   35 % 0.0 in 360.0 W/m2 CLR
15:10 15.0 °F -0.3 °F 1023.6 in Calm     35 % 0.0 in 348.0 W/m2 CLR
15:15 15.6 °F -0.3 °F 1023.6 in Calm     34 % 0.0 in 336.0 W/m2 CLR
15:20 15.6 °F -0.3 °F 1023.6 in Calm     34 % 0.0 in 322.0 W/m2 CLR
15:25 15.0 °F -0.8 °F 1023.6 in Calm     34 % 0.0 in 311.0 W/m2 CLR
15:30 15.0 °F -0.8 °F 1023.6 in NNW 5.6 mph   34 % 0.0 in 301.0 W/m2 CLR
15:35 15.6 °F -0.3 °F 1023.6 in North 9.3 mph 9.3 mph 34 % 0.0 in 288.0 W/m2 CLR
15:40 15.0 °F -0.3 °F 1023.6 in Calm     35 % 0.0 in 278.0 W/m2 CLR
15:45 15.0 °F -0.8 °F 1023.6 in Calm     34 % 0.0 in 262.0 W/m2 CLR
15:50 15.0 °F -0.8 °F 1023.6 in Calm     34 % 0.0 in 248.0 W/m2 CLR
15:55 15.0 °F -0.8 °F 1023.6 in Calm     34 % 0.0 in 230.0 W/m2 CLR
16:00 15.0 °F -0.8 °F 1023.6 in Calm     34 % 0.0 in 214.0 W/m2 CLR
16:05 14.4 °F -0.8 °F 1023.6 in Calm     35 % 0.0 in 202.0 W/m2 CLR
16:10 13.9 °F -1.3 °F 1023.6 in Calm     35 % 0.0 in 188.0 W/m2 CLR
16:15 13.9 °F -1.3 °F 1023.6 in Calm     35 % 0.0 in 172.0 W/m2 CLR
16:20 13.9 °F -1.3 °F 1023.6 in Calm     35 % 0.0 in 156.0 W/m2 CLR
16:25 13.3 °F -2.2 °F 1023.6 in Calm     34 % 0.0 in 142.0 W/m2 CLR
16:30 13.3 °F -1.8 °F 1023.6 in Calm     35 % 0.0 in 123.0 W/m2 CLR
16:35 12.8 °F -2.3 °F 1023.6 in Calm     35 % 0.0 in 111.0 W/m2 CLR
16:40 12.8 °F -2.7 °F 1023.6 in Calm     34 % 0.0 in 100.0 W/m2 CLR
16:45 12.2 °F -2.8 °F 1023.6 in Calm     35 % 0.0 in 83.0 W/m2 CLR
16:50 12.2 °F -2.8 °F 1023.6 in Calm     35 % 0.0 in 69.0 W/m2 FEW
16:55 11.7 °F -2.9 °F 1023.6 in Calm     36 % 0.0 in 65.0 W/m2 FEW
17:00 11.7 °F -2.9 °F 1023.6 in Calm     36 % 0.0 in 51.0 W/m2 SCT
17:05 11.1 °F -3.4 °F 1023.6 in Calm     36 % 0.0 in 40.0 W/m2 BKN
17:10 10.6 °F -3.6 °F 1023.6 in Calm     37 % 0.0 in 28.0 W/m2 BKN
17:15 10.0 °F -4.1 °F 1023.6 in Calm     37 % 0.0 in 19.0 W/m2 BKN
17:20 9.4 °F -4.2 °F 1023.6 in Calm     38 % 0.0 in 14.0 W/m2 BKN
17:25 9.4 °F -3.8 °F 1023.9 in Calm     39 % 0.0 in 12.0 W/m2 BKN
17:30 8.9 °F -4.3 °F 1023.9 in Calm     39 % 0.0 in 11.0 W/m2 BKN
17:35 8.3 °F -4.5 °F 1023.6 in Calm     40 % 0.0 in 7.0 W/m2 BKN
17:40 7.8 °F -4.7 °F 1023.6 in Calm     41 % 0.0 in 5.0 W/m2 OVC
17:45 7.2 °F -5.2 °F 1023.9 in Calm     41 % 0.0 in 5.0 W/m2 OVC
17:50 6.7 °F -5.3 °F 1023.9 in Calm     42 % 0.0 in 0.0 W/m2 OVC
17:55 6.1 °F -5.9 °F 1023.9 in Calm     42 % 0.0 in 0.0 W/m2 CLR
18:00 6.1 °F -5.9 °F 1023.9 in Calm     42 % 0.0 in 0.0 W/m2 CLR
18:05 6.1 °F -5.9 °F 1023.9 in Calm     42 % 0.0 in 0.0 W/m2 CLR
18:10 7.2 °F -4.6 °F 1023.9 in Calm     43 % 0.0 in 0.0 W/m2 CLR
18:15 6.7 °F -4.7 °F 1023.9 in Calm     44 % 0.0 in 0.0 W/m2 CLR
18:20 6.7 °F -4.4 °F 1023.9 in Calm     45 % 0.0 in 0.0 W/m2 CLR
18:25 6.7 °F -4.2 °F 1023.9 in Calm     46 % 0.0 in 0.0 W/m2 CLR
18:30 6.1 °F -4.4 °F 1023.9 in Calm     47 % 0.0 in 0.0 W/m2 CLR
18:35 5.6 °F -4.6 °F 1023.9 in Calm     48 % 0.0 in 0.0 W/m2 CLR
18:40 5.6 °F -4.3 °F 1023.9 in Calm     49 % 0.0 in 0.0 W/m2 CLR
18:45 5.6 °F -4.3 °F 1023.9 in Calm     49 % 0.0 in 0.0 W/m2 CLR
18:50 5.6 °F -4.3 °F 1024.3 in Calm     49 % 0.0 in 0.0 W/m2 CLR
18:55 5.0 °F -4.6 °F 1024.3 in Calm     50 % 0.0 in 0.0 W/m2 CLR
19:00 4.4 °F -4.6 °F 1024.3 in Calm     52 % 0.0 in 0.0 W/m2 CLR
19:05 4.4 °F -4.3 °F 1024.3 in Calm     53 % 0.0 in 0.0 W/m2 CLR
19:10 3.9 °F -4.8 °F 1024.3 in Calm     53 % 0.0 in 0.0 W/m2 CLR
19:15 3.3 °F -5.3 °F 1024.3 in Calm     53 % 0.0 in 0.0 W/m2 CLR
19:20 3.3 °F -5.3 °F 1024.3 in Calm     53 % 0.0 in 0.0 W/m2 CLR
19:25 2.8 °F -5.9 °F 1024.3 in Calm     53 % 0.0 in 0.0 W/m2 CLR
19:30 2.8 °F -5.6 °F 1024.3 in Calm     54 % 0.0 in 0.0 W/m2 CLR
19:35 2.2 °F -5.9 °F 1024.3 in Calm     55 % 0.0 in 0.0 W/m2 CLR
19:40 2.2 °F -5.9 °F 1024.6 in Calm     55 % 0.0 in 0.0 W/m2 CLR
19:45 1.7 °F -6.2 °F 1024.6 in Calm     56 % 0.0 in 0.0 W/m2 CLR
19:50 1.7 °F -6.2 °F 1024.6 in Calm     56 % 0.0 in 0.0 W/m2 CLR
19:51 1.7 °F -6.2 °F 1024.6 in Calm     56 % 0.0 in 0.0 W/m2 CLR
19:56 1.7 °F -6.2 °F 1024.6 in Calm     56 % 0.0 in 0.0 W/m2 CLR
20:01 2.2 °F -5.4 °F 1024.6 in Calm     57 % 0.0 in 0.0 W/m2 CLR
20:06 2.8 °F -4.9 °F 1024.6 in Calm     57 % 0.0 in 0.0 W/m2 CLR
20:11 2.8 °F -4.7 °F 1024.6 in Calm     58 % 0.0 in 0.0 W/m2 CLR
20:16 2.8 °F -4.7 °F 1024.6 in Calm     58 % 0.0 in 0.0 W/m2 CLR
20:21 2.2 °F -5.2 °F 1024.6 in Calm     58 % 0.0 in 0.0 W/m2 CLR
20:26 2.2 °F -5.0 °F 1024.6 in Calm     59 % 0.0 in 0.0 W/m2 CLR
20:31 1.7 °F -5.5 °F 1024.6 in Calm     59 % 0.0 in 0.0 W/m2 CLR
20:36 1.1 °F -6.0 °F 1024.6 in Calm     59 % 0.0 in 0.0 W/m2 CLR
20:41 1.1 °F -6.0 °F 1024.6 in Calm     59 % 0.0 in 0.0 W/m2 CLR
20:46 0.6 °F -6.3 °F 1024.6 in Calm     60 % 0.0 in 0.0 W/m2 CLR
20:51 0.6 °F -6.3 °F 1024.6 in Calm     60 % 0.0 in 0.0 W/m2 CLR
20:56 0.0 °F -6.6 °F 1024.9 in Calm     61 % 0.0 in 0.0 W/m2 CLR
21:01 0.0 °F -6.6 °F 1024.9 in Calm     61 % 0.0 in 0.0 W/m2 CLR
21:06 0.0 °F -6.4 °F 1024.9 in Calm     62 % 0.0 in 0.0 W/m2 CLR
21:11 0.0 °F -6.4 °F 1024.9 in Calm     62 % 0.0 in 0.0 W/m2 CLR
21:16 0.0 °F -6.4 °F 1024.6 in Calm     62 % 0.0 in 0.0 W/m2 CLR
21:21 0.0 °F -6.2 °F 1024.9 in Calm     63 % 0.0 in 0.0 W/m2 CLR
21:26 -0.6 °F -6.6 °F 1024.9 in Calm     64 % 0.0 in 0.0 W/m2 CLR
21:31 -0.6 °F -6.6 °F 1024.6 in Calm     64 % 0.0 in 0.0 W/m2 CLR
21:36 -0.6 °F -6.6 °F 1024.6 in Calm     64 % 0.0 in 0.0 W/m2 CLR
21:41 0.0 °F -5.8 °F 1024.9 in Calm     65 % 0.0 in 0.0 W/m2 CLR
21:46 0.0 °F -5.8 °F 1024.9 in Calm     65 % 0.0 in 0.0 W/m2 CLR
21:51 0.6 °F -5.5 °F 1024.9 in Calm     64 % 0.0 in 0.0 W/m2 CLR
21:56 0.6 °F -5.5 °F 1024.9 in Calm     64 % 0.0 in 0.0 W/m2 CLR
22:01 0.6 °F -5.5 °F 1024.9 in Calm     64 % 0.0 in 0.0 W/m2 CLR
22:06 0.6 °F -5.3 °F 1024.9 in Calm     65 % 0.0 in 0.0 W/m2 CLR
22:11 0.6 °F -5.1 °F 1024.9 in Calm     66 % 0.0 in 0.0 W/m2 CLR
22:16 0.6 °F -5.3 °F 1024.9 in Calm     65 % 0.0 in 0.0 W/m2 CLR
22:21 0.6 °F -5.1 °F 1024.9 in Calm     66 % 0.0 in 0.0 W/m2 CLR
22:26 0.6 °F -5.1 °F 1025.3 in Calm     66 % 0.0 in 0.0 W/m2 CLR
22:31 0.0 °F -5.6 °F 1024.9 in Calm     66 % 0.0 in 0.0 W/m2 CLR
22:36 0.0 °F -5.4 °F 1024.9 in Calm     67 % 0.0 in 0.0 W/m2 CLR
22:41 0.0 °F -5.2 °F 1024.9 in Calm     68 % 0.0 in 0.0 W/m2 CLR
22:46 0.0 °F -5.2 °F 1024.9 in Calm     68 % 0.0 in 0.0 W/m2 CLR
22:51 0.0 °F -5.2 °F 1024.9 in Calm     68 % 0.0 in 0.0 W/m2 CLR
22:56 -0.6 °F -5.7 °F 1024.9 in Calm     68 % 0.0 in 0.0 W/m2 CLR
23:01 -0.6 °F -5.7 °F 1024.9 in Calm     68 % 0.0 in 0.0 W/m2 CLR
23:06 -0.6 °F -5.6 °F 1024.9 in Calm     69 % 0.0 in 0.0 W/m2 CLR
23:11 -0.6 °F -5.6 °F 1024.9 in Calm     69 % 0.0 in 0.0 W/m2 CLR
23:16 -0.6 °F -5.6 °F 1024.9 in Calm     69 % 0.0 in 0.0 W/m2 CLR
23:21 -0.6 °F -5.3 °F 1025.3 in Calm     70 % 0.0 in 0.0 W/m2 CLR
23:26 -1.1 °F -5.9 °F 1025.3 in Calm     70 % 0.0 in 0.0 W/m2 CLR
23:31 -0.6 °F -5.3 °F 1025.3 in Calm     70 % 0.0 in 0.0 W/m2 CLR
23:36 0.0 °F -4.8 °F 1025.3 in Calm     70 % 0.0 in 0.0 W/m2 CLR
23:41 0.0 °F -4.6 °F 1025.3 in Calm     71 % 0.0 in 0.0 W/m2 CLR
23:46 -0.6 °F -5.3 °F 1025.3 in Calm     70 % 0.0 in 0.0 W/m2 CLR
23:56 -0.6 °F -5.6 °F 1025.3 in Calm     69 % 0.0 in 0.0 W/m2 CLR
Lo Temps de Massalio
Compliments of Weather Underground - 1.25 mb